GWRLD LFRS-LESO
Flight info
| Callsign | GWRLD |
|---|---|
| Flight time | 0h 41m |
| Altitude | 19000 |
| Route | LUSON A25 MAREN DCT ASKAN/N0389F180 DCT BRS DCT OSGOT |
| Aircraft | CL60/M-SBDE1E2E3FGHIJ1J4J5J7M3RWXYZ/LB1V1D1 |
Departure
| Time | 2026-04-30 19:47 |
|---|---|
| Airport | Nantes Atlantique Airport (LFRS) |
Arrival
| Time | 2026-04-30 20:28 |
|---|---|
| Airport | San Sebastián Airport (LESO) |
| Time | Latitude | Longitude | Altitude | Speed | Heading |
|---|---|---|---|---|---|
| 2026-04-30 19:26 | 47.16105 | -1.60134 | 91 ft | 0 kts | 198° |
| 2026-04-30 19:41 | 47.16103 | -1.60135 | 91 ft | 0 kts | 199° |
| 2026-04-30 19:42 | 47.16098 | -1.60141 | 91 ft | 9 kts | 232° |
| 2026-04-30 19:42 | 47.16095 | -1.60151 | 91 ft | 0 kts | 258° |
| 2026-04-30 19:42 | 47.16095 | -1.60152 | 91 ft | 0 kts | 258° |
| 2026-04-30 19:44 | 47.16106 | -1.60207 | 91 ft | 8 kts | 23° |
| 2026-04-30 19:44 | 47.16210 | -1.60126 | 91 ft | 25 kts | 26° |
| 2026-04-30 19:44 | 47.16255 | -1.60092 | 90 ft | 0 kts | 26° |
| 2026-04-30 19:45 | 47.16264 | -1.60085 | 91 ft | 3 kts | 27° |
| 2026-04-30 19:45 | 47.16288 | -1.60067 | 90 ft | 11 kts | 27° |
| 2026-04-30 19:45 | 47.16394 | -1.60081 | 90 ft | 18 kts | 340° |
| 2026-04-30 19:46 | 47.16449 | -1.60179 | 90 ft | 12 kts | 258° |
| 2026-04-30 19:46 | 47.16419 | -1.60235 | 90 ft | 0 kts | 209° |
| 2026-04-30 19:46 | 47.16254 | -1.60359 | 90 ft | 75 kts | 207° |
| 2026-04-30 19:46 | 47.15489 | -1.60929 | 173 ft | 158 kts | 205° |
| 2026-04-30 19:47 | 47.14359 | -1.61686 | 697 ft | 191 kts | 206° |
| 2026-04-30 19:47 | 47.13069 | -1.62644 | 1217 ft | 231 kts | 208° |
| 2026-04-30 19:47 | 47.11580 | -1.63763 | 2086 ft | 258 kts | 202° |
| 2026-04-30 19:47 | 47.09721 | -1.64112 | 2733 ft | 289 kts | 170° |
| 2026-04-30 19:48 | 47.07968 | -1.62890 | 3457 ft | 272 kts | 136° |
| 2026-04-30 19:48 | 47.07152 | -1.60716 | 4234 ft | 225 kts | 98° |
| 2026-04-30 19:48 | 47.07069 | -1.58458 | 4809 ft | 223 kts | 93° |
| 2026-04-30 19:48 | 47.07016 | -1.56194 | 5099 ft | 216 kts | 94° |
| 2026-04-30 19:49 | 47.06950 | -1.53998 | 5598 ft | 215 kts | 95° |
| 2026-04-30 19:49 | 47.06706 | -1.49472 | 6595 ft | 244 kts | 107° |
| 2026-04-30 19:49 | 47.05769 | -1.47263 | 7123 ft | 266 kts | 137° |
| 2026-04-30 19:50 | 47.04350 | -1.45433 | 7629 ft | 274 kts | 140° |
| 2026-04-30 19:50 | 47.02907 | -1.43616 | 8231 ft | 271 kts | 140° |
| 2026-04-30 19:50 | 47.01465 | -1.41794 | 8982 ft | 273 kts | 139° |
| 2026-04-30 19:50 | 47.00037 | -1.39972 | 9731 ft | 279 kts | 139° |
| 2026-04-30 19:51 | 46.98564 | -1.38062 | 10493 ft | 283 kts | 139° |
| 2026-04-30 19:51 | 46.97086 | -1.36146 | 11243 ft | 285 kts | 139° |
| 2026-04-30 19:51 | 46.95594 | -1.34208 | 11970 ft | 297 kts | 139° |
| 2026-04-30 19:51 | 46.93968 | -1.32105 | 12425 ft | 326 kts | 139° |
| 2026-04-30 19:52 | 46.92187 | -1.29796 | 12794 ft | 353 kts | 139° |
| 2026-04-30 19:52 | 46.90277 | -1.27323 | 13174 ft | 373 kts | 139° |
| 2026-04-30 19:52 | 46.88314 | -1.24789 | 13757 ft | 376 kts | 139° |
| 2026-04-30 19:52 | 46.86219 | -1.22479 | 14503 ft | 380 kts | 150° |
| 2026-04-30 19:53 | 46.83751 | -1.21064 | 15270 ft | 387 kts | 166° |
| 2026-04-30 19:53 | 46.81034 | -1.20753 | 16044 ft | 397 kts | 184° |
| 2026-04-30 19:53 | 46.78309 | -1.21632 | 16796 ft | 405 kts | 197° |
| 2026-04-30 19:53 | 46.75561 | -1.22588 | 17558 ft | 407 kts | 183° |
| 2026-04-30 19:54 | 46.72740 | -1.22344 | 18313 ft | 409 kts | 172° |
| 2026-04-30 19:54 | 46.69866 | -1.21821 | 18875 ft | 418 kts | 172° |
| 2026-04-30 19:54 | 46.66927 | -1.21309 | 19088 ft | 424 kts | 172° |
| 2026-04-30 19:54 | 46.63976 | -1.20802 | 19121 ft | 422 kts | 172° |
| 2026-04-30 19:55 | 46.61060 | -1.20306 | 19119 ft | 420 kts | 172° |
| 2026-04-30 19:55 | 46.58140 | -1.19813 | 19126 ft | 418 kts | 172° |
| 2026-04-30 19:55 | 46.55235 | -1.19326 | 19121 ft | 417 kts | 172° |
| 2026-04-30 19:55 | 46.52346 | -1.18844 | 19109 ft | 417 kts | 172° |
| 2026-04-30 19:56 | 46.49464 | -1.18366 | 19114 ft | 418 kts | 172° |
| 2026-04-30 19:56 | 46.46551 | -1.17885 | 19113 ft | 418 kts | 172° |
| 2026-04-30 19:56 | 46.43637 | -1.17406 | 19117 ft | 418 kts | 172° |
| 2026-04-30 19:56 | 46.40744 | -1.16933 | 19120 ft | 419 kts | 172° |
| 2026-04-30 19:57 | 46.37805 | -1.16454 | 19122 ft | 419 kts | 172° |
| 2026-04-30 19:57 | 46.34910 | -1.15983 | 19096 ft | 420 kts | 172° |
| 2026-04-30 19:57 | 46.31952 | -1.15503 | 19115 ft | 421 kts | 172° |
| 2026-04-30 19:57 | 46.29002 | -1.15026 | 19115 ft | 428 kts | 172° |
| 2026-04-30 19:58 | 46.26003 | -1.14542 | 19075 ft | 433 kts | 172° |
| 2026-04-30 19:58 | 46.23019 | -1.14062 | 19101 ft | 433 kts | 172° |
| 2026-04-30 19:58 | 46.19991 | -1.13576 | 19120 ft | 433 kts | 172° |
| 2026-04-30 19:58 | 46.16980 | -1.13095 | 19119 ft | 432 kts | 172° |
| 2026-04-30 19:59 | 46.13980 | -1.12615 | 19117 ft | 432 kts | 172° |
| 2026-04-30 19:59 | 46.10972 | -1.12135 | 19137 ft | 433 kts | 172° |
| 2026-04-30 19:59 | 46.04912 | -1.11170 | 19103 ft | 434 kts | 172° |
| 2026-04-30 20:00 | 46.01891 | -1.10690 | 19106 ft | 433 kts | 172° |
| 2026-04-30 20:00 | 45.98885 | -1.10214 | 19111 ft | 434 kts | 172° |
| 2026-04-30 20:00 | 45.95877 | -1.09737 | 19112 ft | 434 kts | 172° |
| 2026-04-30 20:00 | 45.92844 | -1.09257 | 19111 ft | 435 kts | 172° |
| 2026-04-30 20:01 | 45.86774 | -1.08299 | 19112 ft | 435 kts | 172° |
| 2026-04-30 20:01 | 45.83754 | -1.07823 | 19110 ft | 435 kts | 172° |
| 2026-04-30 20:01 | 45.80727 | -1.07347 | 19111 ft | 435 kts | 172° |
| 2026-04-30 20:02 | 45.74682 | -1.06398 | 19116 ft | 436 kts | 172° |
| 2026-04-30 20:02 | 45.71634 | -1.06106 | 19116 ft | 437 kts | 177° |
| 2026-04-30 20:03 | 45.65541 | -1.05917 | 19115 ft | 439 kts | 178° |
| 2026-04-30 20:03 | 45.62457 | -1.05821 | 19115 ft | 440 kts | 178° |
| 2026-04-30 20:03 | 45.59383 | -1.05724 | 19114 ft | 442 kts | 178° |
| 2026-04-30 20:03 | 45.56284 | -1.05627 | 19117 ft | 443 kts | 178° |
| 2026-04-30 20:04 | 45.53188 | -1.05530 | 19114 ft | 443 kts | 178° |
| 2026-04-30 20:04 | 45.50072 | -1.05432 | 19111 ft | 443 kts | 178° |
| 2026-04-30 20:04 | 45.46989 | -1.05334 | 19109 ft | 442 kts | 178° |
| 2026-04-30 20:05 | 45.40780 | -1.05138 | 19120 ft | 443 kts | 179° |
| 2026-04-30 20:05 | 45.37683 | -1.05041 | 19117 ft | 443 kts | 179° |
| 2026-04-30 20:05 | 45.31464 | -1.04844 | 19112 ft | 443 kts | 179° |
| 2026-04-30 20:06 | 45.28369 | -1.04746 | 19113 ft | 443 kts | 179° |
| 2026-04-30 20:06 | 45.25245 | -1.04648 | 19113 ft | 442 kts | 179° |
| 2026-04-30 20:06 | 45.22165 | -1.04550 | 19112 ft | 442 kts | 179° |
| 2026-04-30 20:06 | 45.19098 | -1.04454 | 19116 ft | 441 kts | 179° |
| 2026-04-30 20:07 | 45.15973 | -1.04355 | 19114 ft | 440 kts | 179° |
| 2026-04-30 20:07 | 45.12905 | -1.04259 | 19113 ft | 439 kts | 179° |
| 2026-04-30 20:07 | 45.06778 | -1.04065 | 19110 ft | 439 kts | 179° |
| 2026-04-30 20:08 | 45.03677 | -1.04085 | 19115 ft | 438 kts | 185° |
| 2026-04-30 20:08 | 45.00632 | -1.04463 | 19112 ft | 437 kts | 187° |
| 2026-04-30 20:08 | 44.97645 | -1.04866 | 19109 ft | 421 kts | 187° |
| 2026-04-30 20:08 | 44.94743 | -1.05254 | 19107 ft | 416 kts | 187° |
| 2026-04-30 20:09 | 44.91813 | -1.05645 | 19107 ft | 415 kts | 186° |
| 2026-04-30 20:09 | 44.88913 | -1.06031 | 19118 ft | 414 kts | 186° |
| 2026-04-30 20:09 | 44.83162 | -1.06795 | 19120 ft | 413 kts | 187° |
| 2026-04-30 20:10 | 44.77389 | -1.07559 | 19105 ft | 413 kts | 187° |
| 2026-04-30 20:10 | 44.74495 | -1.07940 | 19115 ft | 413 kts | 187° |
| 2026-04-30 20:10 | 44.71635 | -1.08317 | 19113 ft | 413 kts | 187° |
| 2026-04-30 20:11 | 44.65893 | -1.09071 | 19115 ft | 414 kts | 187° |
| 2026-04-30 20:11 | 44.62988 | -1.09452 | 19101 ft | 414 kts | 187° |
| 2026-04-30 20:11 | 44.60122 | -1.09828 | 19099 ft | 414 kts | 187° |
| 2026-04-30 20:12 | 44.54369 | -1.10580 | 19123 ft | 414 kts | 187° |
| 2026-04-30 20:12 | 44.51471 | -1.10957 | 19116 ft | 414 kts | 187° |
| 2026-04-30 20:12 | 44.48582 | -1.11334 | 19125 ft | 414 kts | 188° |
| 2026-04-30 20:13 | 44.45712 | -1.11707 | 19115 ft | 413 kts | 188° |
| 2026-04-30 20:13 | 44.42799 | -1.12086 | 19117 ft | 412 kts | 187° |
| 2026-04-30 20:13 | 44.39931 | -1.12458 | 19117 ft | 412 kts | 188° |
| 2026-04-30 20:13 | 44.37096 | -1.12915 | 19118 ft | 410 kts | 194° |
| 2026-04-30 20:14 | 44.34386 | -1.14191 | 19120 ft | 408 kts | 206° |
| 2026-04-30 20:14 | 44.31800 | -1.15813 | 19139 ft | 408 kts | 207° |
| 2026-04-30 20:14 | 44.29173 | -1.17449 | 19009 ft | 411 kts | 206° |
| 2026-04-30 20:14 | 44.26560 | -1.19072 | 18548 ft | 409 kts | 206° |
| 2026-04-30 20:15 | 44.23970 | -1.20677 | 18067 ft | 403 kts | 206° |
| 2026-04-30 20:15 | 44.21422 | -1.22254 | 17552 ft | 398 kts | 206° |
| 2026-04-30 20:15 | 44.18877 | -1.23828 | 17023 ft | 394 kts | 206° |
| 2026-04-30 20:15 | 44.16366 | -1.25379 | 16503 ft | 390 kts | 206° |
| 2026-04-30 20:16 | 44.13883 | -1.26910 | 15990 ft | 386 kts | 206° |
| 2026-04-30 20:16 | 44.11427 | -1.28424 | 15481 ft | 382 kts | 206° |
| 2026-04-30 20:16 | 44.08994 | -1.29921 | 14976 ft | 379 kts | 206° |
| 2026-04-30 20:16 | 44.06596 | -1.31396 | 14472 ft | 375 kts | 206° |
| 2026-04-30 20:17 | 44.04193 | -1.32872 | 13971 ft | 372 kts | 206° |
| 2026-04-30 20:17 | 44.01856 | -1.34306 | 13487 ft | 369 kts | 206° |
| 2026-04-30 20:17 | 43.99486 | -1.35760 | 12986 ft | 366 kts | 206° |
| 2026-04-30 20:17 | 43.97178 | -1.37173 | 12502 ft | 362 kts | 206° |
| 2026-04-30 20:18 | 43.94835 | -1.38608 | 12006 ft | 360 kts | 206° |
| 2026-04-30 20:18 | 43.92538 | -1.40012 | 11536 ft | 357 kts | 206° |
| 2026-04-30 20:18 | 43.90270 | -1.41399 | 11073 ft | 355 kts | 206° |
| 2026-04-30 20:18 | 43.87975 | -1.42800 | 10582 ft | 353 kts | 205° |
| 2026-04-30 20:19 | 43.85733 | -1.44166 | 10126 ft | 347 kts | 205° |
| 2026-04-30 20:19 | 43.83566 | -1.45486 | 9660 ft | 330 kts | 205° |
| 2026-04-30 20:19 | 43.81518 | -1.46732 | 9243 ft | 312 kts | 205° |
| 2026-04-30 20:19 | 43.79570 | -1.47915 | 8856 ft | 298 kts | 205° |
| 2026-04-30 20:20 | 43.77705 | -1.49049 | 8490 ft | 289 kts | 205° |
| 2026-04-30 20:20 | 43.75850 | -1.50174 | 8071 ft | 286 kts | 205° |
| 2026-04-30 20:20 | 43.74044 | -1.51270 | 7519 ft | 288 kts | 205° |
| 2026-04-30 20:20 | 43.72212 | -1.52381 | 7160 ft | 282 kts | 205° |
| 2026-04-30 20:21 | 43.70399 | -1.53479 | 6761 ft | 278 kts | 205° |
| 2026-04-30 20:21 | 43.68636 | -1.54547 | 6412 ft | 273 kts | 205° |
| 2026-04-30 20:21 | 43.66904 | -1.55594 | 6058 ft | 270 kts | 205° |
| 2026-04-30 20:21 | 43.65179 | -1.56638 | 5698 ft | 268 kts | 205° |
| 2026-04-30 20:22 | 43.63462 | -1.57675 | 5339 ft | 268 kts | 205° |
| 2026-04-30 20:22 | 43.61701 | -1.58609 | 4986 ft | 267 kts | 199° |
| 2026-04-30 20:22 | 43.59945 | -1.59387 | 4603 ft | 260 kts | 198° |
| 2026-04-30 20:22 | 43.58254 | -1.60136 | 4290 ft | 251 kts | 198° |
| 2026-04-30 20:23 | 43.56607 | -1.60865 | 3962 ft | 243 kts | 198° |
| 2026-04-30 20:23 | 43.55013 | -1.61570 | 3645 ft | 236 kts | 198° |
| 2026-04-30 20:23 | 43.53485 | -1.62246 | 3380 ft | 220 kts | 198° |
| 2026-04-30 20:23 | 43.52053 | -1.62879 | 3054 ft | 211 kts | 198° |
| 2026-04-30 20:24 | 43.50682 | -1.63485 | 2789 ft | 199 kts | 198° |
| 2026-04-30 20:24 | 43.49370 | -1.64082 | 2545 ft | 193 kts | 202° |
| 2026-04-30 20:24 | 43.48257 | -1.65082 | 2486 ft | 190 kts | 220° |
| 2026-04-30 20:24 | 43.47231 | -1.66266 | 2491 ft | 193 kts | 220° |
| 2026-04-30 20:25 | 43.45117 | -1.68614 | 2245 ft | 190 kts | 219° |
| 2026-04-30 20:25 | 43.44133 | -1.69700 | 2004 ft | 173 kts | 219° |
| 2026-04-30 20:26 | 43.42274 | -1.71755 | 1565 ft | 169 kts | 219° |
| 2026-04-30 20:26 | 43.40611 | -1.73593 | 1148 ft | 143 kts | 219° |
| 2026-04-30 20:26 | 43.39884 | -1.74396 | 977 ft | 139 kts | 219° |
| 2026-04-30 20:27 | 43.38371 | -1.76039 | 613 ft | 136 kts | 218° |
| 2026-04-30 20:27 | 43.36892 | -1.77674 | 224 ft | 136 kts | 220° |
| 2026-04-30 20:28 | 43.35554 | -1.79169 | 19 ft | 67 kts | 220° |
| 2026-04-30 20:28 | 43.35130 | -1.79633 | 18 ft | 12 kts | 219° |
| 2026-04-30 20:29 | 43.35064 | -1.79704 | 18 ft | 11 kts | 31° |
| 2026-04-30 20:30 | 43.35472 | -1.79258 | 19 ft | 15 kts | 39° |
| 2026-04-30 20:30 | 43.35597 | -1.79274 | 18 ft | 2 kts | 38° |
| 2026-04-30 20:31 | 43.35598 | -1.79273 | 18 ft | 0 kts | 38° |